Carthage, Ohio
Current Conditions -  °F | °C
As of 1:53 AM on Wednesday 26 Nov 2014 (Local Time) from KLUK Reporting Station
Clear Clear  
Wind Chill: 29°   Ceiling: Unl
Heat Index: 29°   Visibility: 9mi
Dew Point: 25°   Wind: 3mph
Humidity: 85%   Direction: 50°NE
Pressure: 30.19"   Gusts: NA
Location:  39.1981°N, 84.4817°W
Report Text: KLUK 260653Z AUTO 05003KT 9SM CLR M02/M04 A3019 RMK AO2 SLP225 T10171039
Loading
Personal Weather Stations






























Interactive Weather Map New forecast layout! Learn more

10-Day Weather Forecast

Advertisements
Track Severe Weather on mobile